createdAt,value
2022-11-24T00:01:26.013Z,43.53
2022-11-24T00:03:56.619Z,35.03
2022-11-24T00:06:24.997Z,37.10
2022-11-24T00:08:52.725Z,43.78
2022-11-24T00:11:24.153Z,41.10
2022-11-24T00:13:51.501Z,45.03
2022-11-24T00:16:24.297Z,38.78
2022-11-24T00:18:55.441Z,41.63
2022-11-24T00:21:23.696Z,37.65
2022-11-24T00:23:51.812Z,42.40
2022-11-24T00:26:38.420Z,40.83
2022-11-24T00:29:08.067Z,33.78
2022-11-24T00:31:41.921Z,34.60
2022-11-24T00:34:14.903Z,34.05
2022-11-24T00:36:42.976Z,39.38
2022-11-24T00:39:15.835Z,34.22
2022-11-24T00:41:43.656Z,34.85
2022-11-24T00:44:10.926Z,35.42
2022-11-24T00:46:38.748Z,38.97
2022-11-24T00:49:06.236Z,35.65
2022-11-24T00:51:33.819Z,37.85
2022-11-24T00:54:01.955Z,35.20
2022-11-24T00:56:30.086Z,26.85
2022-11-24T00:58:57.237Z,30.85
2022-11-24T01:01:28.254Z,38.28
2022-11-24T01:03:55.871Z,26.60
2022-11-24T01:06:26.535Z,30.92
2022-11-24T01:08:56.536Z,27.92
2022-11-24T01:11:52.573Z,24.75
2022-11-24T01:14:23.432Z,25.77
2022-11-24T01:16:50.820Z,25.15
2022-11-24T01:19:18.139Z,24.23
2022-11-24T01:21:45.880Z,26.70
2022-11-24T01:24:14.124Z,28.83
2022-11-24T01:26:41.833Z,21.52
2022-11-24T01:29:12.067Z,24.98
2022-11-24T01:31:39.647Z,26.42
2022-11-24T01:34:06.978Z,22.98
2022-11-24T01:36:35.052Z,26.67
2022-11-24T01:39:02.149Z,22.17
2022-11-24T01:41:29.224Z,24.27
2022-11-24T01:43:57.848Z,27.35
2022-11-24T01:46:50.063Z,21.77
2022-11-24T01:49:57.843Z,23.77
2022-11-24T01:53:00.105Z,25.20
2022-11-24T01:55:37.743Z,27.75
2022-11-24T01:58:24.568Z,22.73
2022-11-24T02:01:18.737Z,20.10
2022-11-24T02:03:51.115Z,21.27
2022-11-24T02:06:25.185Z,24.50
2022-11-24T02:09:03.364Z,22.77
2022-11-24T02:11:37.858Z,20.23
2022-11-24T02:14:13.101Z,24.20
2022-11-24T02:16:44.242Z,21.85
2022-11-24T02:19:47.798Z,23.35
2022-11-24T02:22:33.302Z,23.27
2022-11-24T02:25:28.022Z,23.05
2022-11-24T02:27:58.182Z,28.15
2022-11-24T02:30:25.367Z,22.65
2022-11-24T02:32:53.002Z,30.17
2022-11-24T02:35:20.915Z,26.52
2022-11-24T02:37:48.556Z,27.00
2022-11-24T02:41:26.540Z,30.85
2022-11-24T02:44:02.225Z,21.13
2022-11-24T02:46:42.352Z,27.88
2022-11-24T02:49:55.106Z,23.60
2022-11-24T02:57:11.771Z,31.52
2022-11-24T02:59:39.037Z,31.45
2022-11-24T03:02:06.176Z,33.67
2022-11-24T03:04:33.561Z,31.02
2022-11-24T03:07:00.940Z,29.90
2022-11-24T03:09:30.428Z,31.80
2022-11-24T03:11:57.432Z,29.10
2022-11-24T03:14:24.586Z,28.60
2022-11-24T03:16:51.791Z,39.75
2022-11-24T03:19:18.892Z,38.78
2022-11-24T03:21:45.955Z,27.95
2022-11-24T03:24:13.168Z,24.90
2022-11-24T03:27:03.579Z,28.92
2022-11-24T03:29:49.189Z,26.13
2022-11-24T03:32:32.802Z,25.92
2022-11-24T03:35:24.273Z,29.48
2022-11-24T03:37:54.434Z,31.00
2022-11-24T03:40:21.519Z,30.67
2022-11-24T03:42:48.655Z,30.42
2022-11-24T03:45:44.352Z,27.60
2022-11-24T03:48:03.392Z,25.55
2022-11-24T03:50:30.629Z,24.17
2022-11-24T03:52:58.006Z,31.10
2022-11-24T03:55:25.187Z,29.80
2022-11-24T03:57:52.382Z,28.05
2022-11-24T04:00:19.771Z,36.15
2022-11-24T04:02:48.154Z,29.98
2022-11-24T04:05:15.369Z,44.67
2022-11-24T04:07:42.586Z,34.78
2022-11-24T04:10:09.876Z,29.60
2022-11-24T04:12:44.880Z,37.97
2022-11-24T04:15:26.533Z,26.20
2022-11-24T04:17:56.224Z,23.40
2022-11-24T04:20:23.674Z,31.33
2022-11-24T04:22:57.478Z,38.83
2022-11-24T04:25:24.786Z,24.52
2022-11-24T04:27:53.772Z,36.95
2022-11-24T04:30:23.341Z,32.20
2022-11-24T04:32:51.172Z,33.85
2022-11-24T04:35:19.493Z,33.28
2022-11-24T04:37:46.882Z,36.70
2022-11-24T04:40:14.439Z,36.53
2022-11-24T04:42:41.952Z,36.55
2022-11-24T04:45:11.117Z,37.53
2022-11-24T04:47:38.416Z,32.63
2022-11-24T04:50:07.752Z,26.05
2022-11-24T04:52:35.536Z,31.50
2022-11-24T04:55:03.283Z,28.13
2022-11-24T04:57:30.301Z,32.20
2022-11-24T05:00:15.967Z,35.33
2022-11-24T05:02:46.618Z,40.35
2022-11-24T05:05:13.778Z,33.92
2022-11-24T05:07:40.846Z,32.92
2022-11-24T05:10:26.857Z,30.80
2022-11-24T05:12:56.899Z,30.45
2022-11-24T05:15:24.148Z,32.90
2022-11-24T05:17:51.568Z,26.67
2022-11-24T05:20:19.057Z,28.10
2022-11-24T05:22:46.228Z,29.75
2022-11-24T05:25:14.322Z,24.85
2022-11-24T05:27:41.703Z,30.63
2022-11-24T05:30:09.676Z,31.48
2022-11-24T05:32:36.848Z,29.83
2022-11-24T05:35:04.793Z,23.15
2022-11-24T05:37:31.942Z,29.92
2022-11-24T05:39:58.999Z,29.20
2022-11-24T05:42:46.510Z,26.33
2022-11-24T05:45:21.376Z,31.15
2022-11-24T05:47:51.640Z,26.75
2022-11-24T05:50:21.705Z,34.42
2022-11-24T05:52:49.958Z,32.42
2022-11-24T05:55:19.613Z,27.38
2022-11-24T05:57:46.846Z,31.70
2022-11-24T06:00:15.753Z,28.95
2022-11-24T06:02:43.033Z,35.63
2022-11-24T06:05:16.419Z,37.45
2022-11-24T06:07:43.688Z,31.30
2022-11-24T06:10:10.888Z,34.40
2022-11-24T06:12:40.120Z,34.13
2022-11-24T06:15:07.820Z,43.67
2022-11-24T06:17:35.038Z,29.73
2022-11-24T06:20:02.096Z,24.45
2022-11-24T06:22:29.191Z,31.27
2022-11-24T06:24:56.335Z,34.25
2022-11-24T06:27:23.583Z,28.35
2022-11-24T06:29:50.791Z,30.00
2022-11-24T06:32:18.171Z,25.77
2022-11-24T06:34:45.829Z,34.75
2022-11-24T06:37:12.920Z,32.03
2022-11-24T06:39:45.752Z,35.70
2022-11-24T06:42:13.085Z,28.00
2022-11-24T06:44:40.554Z,25.33
2022-11-24T06:47:08.023Z,27.17
2022-11-24T06:49:35.004Z,26.67
2022-11-24T06:52:02.133Z,29.38
2022-11-24T06:54:29.430Z,29.83
2022-11-24T06:56:58.330Z,34.13
2022-11-24T06:59:26.600Z,31.77
2022-11-24T07:01:54.075Z,31.13
2022-11-24T07:04:21.241Z,31.85
2022-11-24T07:06:48.493Z,28.40
2022-11-24T07:09:15.637Z,27.40
2022-11-24T07:11:43.529Z,27.17
2022-11-24T07:14:10.793Z,31.75
2022-11-24T07:16:41.710Z,30.92
2022-11-24T07:19:09.986Z,25.35
2022-11-24T07:21:37.246Z,25.58
2022-11-24T07:24:04.931Z,29.60
2022-11-24T07:26:37.186Z,28.45
2022-11-24T07:29:05.593Z,36.85
2022-11-24T07:31:32.952Z,33.05
2022-11-24T07:34:00.148Z,33.78
2022-11-24T07:36:27.431Z,25.58
2022-11-24T07:38:54.617Z,33.25
2022-11-24T07:41:22.146Z,33.60
2022-11-24T07:43:50.642Z,32.38
2022-11-24T07:46:19.627Z,30.88
2022-11-24T07:48:51.646Z,31.17
2022-11-24T07:51:31.778Z,27.27
2022-11-24T07:53:59.090Z,31.70
2022-11-24T07:56:26.288Z,28.73
2022-11-24T07:58:53.862Z,33.25
2022-11-24T08:01:21.326Z,26.02
2022-11-24T08:03:48.578Z,28.58
2022-11-24T08:06:26.558Z,33.50
2022-11-24T08:08:57.029Z,32.75
2022-11-24T08:11:25.271Z,36.78
2022-11-24T08:14:18.184Z,29.05
2022-11-24T08:16:46.418Z,27.30
2022-11-24T08:19:13.668Z,24.98
2022-11-24T08:21:41.030Z,22.75
2022-11-24T08:24:08.868Z,18.58
2022-11-24T08:26:38.180Z,25.10
2022-11-24T08:29:05.193Z,24.10
2022-11-24T08:31:36.021Z,21.90
2022-11-24T08:34:05.571Z,23.83
2022-11-24T08:36:33.905Z,21.80
2022-11-24T08:39:02.159Z,23.42
2022-11-24T08:41:30.852Z,28.70
2022-11-24T08:43:58.907Z,22.15
2022-11-24T08:46:26.277Z,19.83
2022-11-24T08:48:55.274Z,21.42
2022-11-24T08:51:26.270Z,19.92
2022-11-24T08:54:00.171Z,23.67
2022-11-24T08:56:30.418Z,20.48
2022-11-24T08:58:59.304Z,20.58
2022-11-24T09:01:28.381Z,19.05
2022-11-24T09:03:55.848Z,23.00
2022-11-24T09:06:30.202Z,18.08
2022-11-24T09:08:59.612Z,21.70
2022-11-24T09:11:27.664Z,21.75
2022-11-24T09:13:55.793Z,25.15
2022-11-24T09:16:26.975Z,19.80
2022-11-24T09:19:01.476Z,32.42
2022-11-24T09:21:30.267Z,22.20
2022-11-24T09:23:57.816Z,21.65
2022-11-24T09:26:29.296Z,22.38
2022-11-24T09:28:59.063Z,21.53
2022-11-24T09:31:29.802Z,19.00
2022-11-24T09:33:57.914Z,21.52
2022-11-24T09:36:25.472Z,22.45
2022-11-24T09:38:53.330Z,25.10
2022-11-24T09:41:49.768Z,21.75
2022-11-24T09:44:53.184Z,22.25
2022-11-24T09:48:32.883Z,21.98
2022-11-24T09:51:04.552Z,23.02
2022-11-24T09:53:39.309Z,18.15
2022-11-24T09:56:35.122Z,20.55
2022-11-24T09:59:17.194Z,21.55
2022-11-24T10:01:47.316Z,23.87
2022-11-24T10:04:21.813Z,28.23
2022-11-24T10:07:18.939Z,27.10
2022-11-24T10:10:24.283Z,28.02
2022-11-24T10:13:26.749Z,23.25
2022-11-24T10:16:18.223Z,21.02
2022-11-24T10:19:17.677Z,23.40
2022-11-24T10:22:13.352Z,21.90
2022-11-24T10:25:08.042Z,23.98
2022-11-24T10:28:00.175Z,26.40
2022-11-24T10:30:28.381Z,30.25
2022-11-24T10:33:06.583Z,24.10
2022-11-24T10:35:58.516Z,22.27
2022-11-24T10:38:34.401Z,28.30
2022-11-24T10:41:13.442Z,23.08
2022-11-24T10:43:43.252Z,20.67
2022-11-24T10:46:30.644Z,24.80
2022-11-24T10:49:04.925Z,19.02
2022-11-24T11:03:52.298Z,28.30
2022-11-24T11:06:31.857Z,27.48
2022-11-24T11:09:08.172Z,32.85
2022-11-24T11:11:39.313Z,24.75
2022-11-24T11:14:10.553Z,21.38
2022-11-24T11:16:45.956Z,27.75
2022-11-24T11:19:50.361Z,25.55
2022-11-24T11:31:21.477Z,25.55
2022-11-24T11:34:40.200Z,26.63
2022-11-24T11:37:13.065Z,27.40
2022-11-24T11:40:01.961Z,36.30
2022-11-24T11:45:30.952Z,30.35
2022-11-24T11:48:44.137Z,22.63
2022-11-24T11:56:06.001Z,31.17
2022-11-24T12:00:11.188Z,31.88
2022-11-24T12:03:00.765Z,30.73
2022-11-24T12:10:01.992Z,35.35
2022-11-24T12:15:56.424Z,32.38
2022-11-24T12:18:57.461Z,27.92
2022-11-24T12:26:19.014Z,28.20
2022-11-24T12:50:15.784Z,30.40
2022-11-24T12:53:03.965Z,28.42
2022-11-24T12:55:34.018Z,27.98
2022-11-24T12:58:39.124Z,30.77
2022-11-24T13:01:36.910Z,32.65
2022-11-24T13:04:53.819Z,31.08
2022-11-24T13:18:06.768Z,33.75
2022-11-24T13:20:40.447Z,26.27
2022-11-24T13:23:26.757Z,31.23
2022-11-24T13:26:30.033Z,28.02
2022-11-24T13:29:23.889Z,26.65
2022-11-24T13:31:52.474Z,25.08
2022-11-24T13:34:45.737Z,28.15
2022-11-24T13:37:51.419Z,36.83
2022-11-24T13:40:22.908Z,31.70
2022-11-24T13:43:08.435Z,34.05
2022-11-24T13:46:16.807Z,31.35
2022-11-24T13:48:47.448Z,30.77
2022-11-24T13:51:23.497Z,29.10
2022-11-24T13:53:55.004Z,27.40
2022-11-24T13:56:28.180Z,32.35
2022-11-24T13:59:14.621Z,32.78
2022-11-24T14:01:43.660Z,27.02
2022-11-24T14:04:33.054Z,33.83
2022-11-24T14:07:11.770Z,35.65
2022-11-24T14:09:47.729Z,37.83
2022-11-24T14:12:51.116Z,36.25
2022-11-24T14:15:34.422Z,30.20
2022-11-24T14:18:48.658Z,32.53
2022-11-24T14:21:39.756Z,37.72
2022-11-24T14:28:42.057Z,39.13
2022-11-24T14:31:38.290Z,42.15
2022-11-24T14:34:11.560Z,39.20
2022-11-24T14:36:40.091Z,37.75
2022-11-24T14:39:18.390Z,41.33
2022-11-24T14:41:53.629Z,43.53
2022-11-24T14:44:26.372Z,42.28
2022-11-24T14:47:07.725Z,41.33
2022-11-24T14:49:41.671Z,40.67
2022-11-24T14:52:16.580Z,48.80
2022-11-24T14:55:21.294Z,44.28
2022-11-24T14:57:49.015Z,45.78
2022-11-24T15:00:19.916Z,53.15
2022-11-24T15:02:54.027Z,38.97
2022-11-24T15:05:25.297Z,45.00
2022-11-24T15:08:03.297Z,43.30
2022-11-24T15:10:36.969Z,42.75
2022-11-24T15:13:16.225Z,41.40
2022-11-24T15:16:01.990Z,47.00
2022-11-24T15:18:58.308Z,42.17
2022-11-24T15:21:37.389Z,42.97
2022-11-24T15:24:18.623Z,44.40
2022-11-24T15:26:46.605Z,40.20
2022-11-24T15:29:14.077Z,43.78
2022-11-24T15:31:45.299Z,44.63
2022-11-24T15:34:17.211Z,47.00
2022-11-24T15:36:44.381Z,42.92
2022-11-24T15:39:11.559Z,48.20
2022-11-24T15:41:38.803Z,46.63
2022-11-24T15:44:06.073Z,45.78
2022-11-24T15:46:38.733Z,42.95
2022-11-24T15:49:15.976Z,44.35
2022-11-24T15:51:46.987Z,52.70
2022-11-24T15:54:22.240Z,45.03
2022-11-24T15:56:49.986Z,45.60
2022-11-24T15:59:20.680Z,54.13
2022-11-24T16:01:50.673Z,43.72
2022-11-24T16:04:19.251Z,44.45
2022-11-24T16:06:48.034Z,53.72
2022-11-24T16:09:18.325Z,51.33
2022-11-24T16:11:46.303Z,49.38
2022-11-24T16:14:13.497Z,55.47
2022-11-24T16:16:50.295Z,44.85
2022-11-24T16:19:19.768Z,46.88
2022-11-24T16:21:50.181Z,45.03
2022-11-24T16:24:17.438Z,45.67
2022-11-24T16:26:44.671Z,48.70
2022-11-24T16:29:12.072Z,46.33
2022-11-24T16:31:39.379Z,47.55
2022-11-24T16:34:06.685Z,50.45
2022-11-24T16:36:33.970Z,51.33
2022-11-24T16:39:01.111Z,51.95
2022-11-24T16:41:28.291Z,45.85
2022-11-24T16:43:55.735Z,51.78
2022-11-24T16:46:24.909Z,51.33
2022-11-24T16:48:57.327Z,50.05
2022-11-24T16:51:28.719Z,47.50
2022-11-24T16:54:02.227Z,44.70
2022-11-24T16:56:30.626Z,51.17
2022-11-24T16:58:57.964Z,52.55
2022-11-24T17:01:26.115Z,49.10
2022-11-24T17:03:53.524Z,63.15
2022-11-24T17:06:20.865Z,46.10
2022-11-24T17:08:48.489Z,63.70
2022-11-24T17:11:24.293Z,51.95
2022-11-24T17:13:54.154Z,53.90
2022-11-24T17:16:24.532Z,52.67
2022-11-24T17:18:52.238Z,53.83
2022-11-24T17:21:25.167Z,51.95
2022-11-24T17:24:01.359Z,50.13
2022-11-24T17:26:28.858Z,49.80
2022-11-24T17:28:56.361Z,53.58
2022-11-24T17:31:29.802Z,55.33
2022-11-24T17:33:59.603Z,44.75
2022-11-24T17:36:27.802Z,59.33
2022-11-24T17:38:55.448Z,60.90
2022-11-24T17:41:23.319Z,62.25
2022-11-24T17:43:56.624Z,52.65
2022-11-24T17:46:26.375Z,50.22
2022-11-24T17:48:54.918Z,51.90
2022-11-24T17:51:25.432Z,56.00
2022-11-24T17:53:54.839Z,52.08
2022-11-24T17:56:26.264Z,57.50
2022-11-24T17:58:59.596Z,58.35
2022-11-24T18:01:32.262Z,58.80
2022-11-24T18:03:59.816Z,58.63
2022-11-24T18:06:28.805Z,57.35
2022-11-24T18:08:57.757Z,62.30
2022-11-24T18:11:31.648Z,62.00
2022-11-24T18:14:02.948Z,56.47
2022-11-24T18:16:33.495Z,62.72
2022-11-24T18:19:09.142Z,60.70
2022-11-24T18:21:39.873Z,67.00
2022-11-24T18:24:10.177Z,58.38
2022-11-24T18:26:38.774Z,60.13
2022-11-24T18:29:06.489Z,64.10
2022-11-24T18:31:35.892Z,65.50
2022-11-24T18:34:05.757Z,56.33
2022-11-24T18:36:35.130Z,56.92
2022-11-24T18:39:08.217Z,60.25
2022-11-24T18:41:35.745Z,61.70
2022-11-24T18:44:08.161Z,55.65
2022-11-24T18:46:37.426Z,64.05
2022-11-24T18:49:05.869Z,71.00
2022-11-24T18:51:33.879Z,66.57
2022-11-24T18:54:03.167Z,64.72
2022-11-24T18:56:31.541Z,61.50
2022-11-24T18:58:59.122Z,59.13
2022-11-24T19:01:29.597Z,67.50
2022-11-24T19:04:01.797Z,65.13
2022-11-24T19:06:33.540Z,74.72
2022-11-24T19:09:18.564Z,71.78
2022-11-24T19:11:47.143Z,71.47
2022-11-24T19:14:25.331Z,70.60
2022-11-24T19:16:52.970Z,70.55
2022-11-24T19:19:21.092Z,79.05
2022-11-24T19:21:48.541Z,68.28
2022-11-24T19:24:20.034Z,74.72
2022-11-24T19:26:47.688Z,79.43
2022-11-24T19:29:15.808Z,78.88
2022-11-24T19:31:44.081Z,74.88
2022-11-24T19:34:13.453Z,64.00
2022-11-24T19:36:43.267Z,74.53
2022-11-24T19:39:54.284Z,64.18
2022-11-24T19:42:22.547Z,70.07
2022-11-24T19:44:54.772Z,58.70
2022-11-24T19:47:24.003Z,57.55
2022-11-24T19:54:44.164Z,57.40
2022-11-24T19:57:12.600Z,45.92
2022-11-24T19:59:39.995Z,59.25
2022-11-24T20:02:57.886Z,56.17
2022-11-24T20:06:41.874Z,59.78
2022-11-24T20:13:38.858Z,56.58
2022-11-24T20:16:12.681Z,59.53
2022-11-24T20:18:43.954Z,58.40
2022-11-24T20:21:13.634Z,59.28
2022-11-24T20:39:58.905Z,60.53
2022-11-24T21:06:51.338Z,51.85
2022-11-24T21:09:46.173Z,62.20
2022-11-24T21:13:11.350Z,56.78
2022-11-24T21:26:30.831Z,53.08
2022-11-24T21:29:03.287Z,53.20
2022-11-24T21:31:30.656Z,56.58
2022-11-24T21:33:57.805Z,57.47
2022-11-24T21:37:02.606Z,51.72
2022-11-24T21:40:06.804Z,49.67
2022-11-24T21:54:21.074Z,50.75
2022-11-24T21:57:34.298Z,57.58
2022-11-24T22:00:31.236Z,50.80
2022-11-24T22:35:44.050Z,39.75
2022-11-24T22:52:40.951Z,30.35
2022-11-24T22:59:46.692Z,27.55
2022-11-24T23:02:43.480Z,26.40
2022-11-24T23:05:48.651Z,14.38
2022-11-24T23:12:17.751Z,21.83
2022-11-24T23:15:44.752Z,13.40
2022-11-24T23:21:36.214Z,11.93
2022-11-24T23:24:13.350Z,14.05
2022-11-24T23:26:58.500Z,11.15
2022-11-24T23:29:29.202Z,10.55
2022-11-24T23:34:59.288Z,12.48
2022-11-24T23:37:52.164Z,16.73
2022-11-24T23:40:19.730Z,14.80
2022-11-24T23:42:48.287Z,9.60
2022-11-24T23:45:23.231Z,14.77
2022-11-24T23:47:53.633Z,14.35
2022-11-24T23:50:20.654Z,19.20
2022-11-24T23:52:47.863Z,10.05
2022-11-24T23:55:21.283Z,11.05
2022-11-24T23:58:31.461Z,10.30
